sensor_id;sensor_type;location;lat;lon;timestamp;P1;durP1;ratioP1;P2;durP2;ratioP2
2434;SDS011;1228;51.022;6.764;2023-06-10T00:01:23;13.48;;;12.48;;
2434;SDS011;1228;51.022;6.764;2023-06-10T00:03:50;14.13;;;12.95;;
2434;SDS011;1228;51.022;6.764;2023-06-10T00:06:16;13.07;;;11.97;;
2434;SDS011;1228;51.022;6.764;2023-06-10T00:08:42;12.00;;;11.03;;
2434;SDS011;1228;51.022;6.764;2023-06-10T00:11:08;16.20;;;15.07;;
2434;SDS011;1228;51.022;6.764;2023-06-10T00:13:33;21.53;;;19.83;;
2434;SDS011;1228;51.022;6.764;2023-06-10T00:16:00;12.90;;;11.70;;
2434;SDS011;1228;51.022;6.764;2023-06-10T00:18:26;13.70;;;12.60;;
2434;SDS011;1228;51.022;6.764;2023-06-10T00:20:52;13.47;;;12.43;;
2434;SDS011;1228;51.022;6.764;2023-06-10T00:23:20;13.90;;;12.15;;
2434;SDS011;1228;51.022;6.764;2023-06-10T00:25:46;14.20;;;13.10;;
2434;SDS011;1228;51.022;6.764;2023-06-10T00:28:11;14.43;;;13.23;;
2434;SDS011;1228;51.022;6.764;2023-06-10T00:30:38;12.63;;;11.53;;
2434;SDS011;1228;51.022;6.764;2023-06-10T00:33:04;14.00;;;12.80;;
2434;SDS011;1228;51.022;6.764;2023-06-10T00:35:29;12.00;;;10.90;;
2434;SDS011;1228;51.022;6.764;2023-06-10T00:37:55;11.90;;;10.90;;
2434;SDS011;1228;51.022;6.764;2023-06-10T00:40:21;11.97;;;10.80;;
2434;SDS011;1228;51.022;6.764;2023-06-10T00:42:46;14.03;;;12.93;;
2434;SDS011;1228;51.022;6.764;2023-06-10T00:45:12;13.40;;;12.17;;
2434;SDS011;1228;51.022;6.764;2023-06-10T00:47:38;12.27;;;11.07;;
2434;SDS011;1228;51.022;6.764;2023-06-10T00:50:04;12.13;;;11.07;;
2434;SDS011;1228;51.022;6.764;2023-06-10T00:52:31;12.40;;;11.50;;
2434;SDS011;1228;51.022;6.764;2023-06-10T00:54:58;11.70;;;10.80;;
2434;SDS011;1228;51.022;6.764;2023-06-10T00:57:24;12.70;;;11.50;;
2434;SDS011;1228;51.022;6.764;2023-06-10T00:59:51;13.03;;;11.93;;
2434;SDS011;1228;51.022;6.764;2023-06-10T01:02:17;13.07;;;11.87;;
2434;SDS011;1228;51.022;6.764;2023-06-10T01:04:42;13.15;;;12.05;;
2434;SDS011;1228;51.022;6.764;2023-06-10T01:07:17;13.23;;;12.13;;
2434;SDS011;1228;51.022;6.764;2023-06-10T01:15:17;11.57;;;10.50;;
2434;SDS011;1228;51.022;6.764;2023-06-10T01:18:02;12.53;;;11.43;;
2434;SDS011;1228;51.022;6.764;2023-06-10T01:20:29;12.50;;;11.47;;
2434;SDS011;1228;51.022;6.764;2023-06-10T01:22:57;13.33;;;12.20;;
2434;SDS011;1228;51.022;6.764;2023-06-10T01:25:28;11.83;;;10.77;;
2434;SDS011;1228;51.022;6.764;2023-06-10T01:33:27;13.50;;;11.50;;
2434;SDS011;1228;51.022;6.764;2023-06-10T01:35:58;12.70;;;11.60;;
2434;SDS011;1228;51.022;6.764;2023-06-10T01:38:26;13.90;;;12.63;;
2434;SDS011;1228;51.022;6.764;2023-06-10T01:40:55;12.93;;;11.80;;
2434;SDS011;1228;51.022;6.764;2023-06-10T01:43:22;14.00;;;12.80;;
2434;SDS011;1228;51.022;6.764;2023-06-10T01:45:48;14.20;;;13.00;;
2434;SDS011;1228;51.022;6.764;2023-06-10T01:48:14;14.57;;;13.30;;
2434;SDS011;1228;51.022;6.764;2023-06-10T01:50:39;13.20;;;12.10;;
2434;SDS011;1228;51.022;6.764;2023-06-10T01:53:05;16.97;;;13.53;;
2434;SDS011;1228;51.022;6.764;2023-06-10T01:55:30;13.13;;;11.93;;
2434;SDS011;1228;51.022;6.764;2023-06-10T01:57:56;13.13;;;11.83;;
2434;SDS011;1228;51.022;6.764;2023-06-10T02:00:22;12.30;;;11.10;;
2434;SDS011;1228;51.022;6.764;2023-06-10T02:02:48;12.80;;;11.80;;
2434;SDS011;1228;51.022;6.764;2023-06-10T02:05:13;12.23;;;11.13;;
2434;SDS011;1228;51.022;6.764;2023-06-10T02:07:39;13.07;;;11.77;;
2434;SDS011;1228;51.022;6.764;2023-06-10T02:10:05;12.73;;;11.53;;
2434;SDS011;1228;51.022;6.764;2023-06-10T02:12:32;12.23;;;11.17;;
2434;SDS011;1228;51.022;6.764;2023-06-10T02:14:57;12.77;;;11.57;;
2434;SDS011;1228;51.022;6.764;2023-06-10T02:17:23;12.93;;;11.73;;
2434;SDS011;1228;51.022;6.764;2023-06-10T02:19:49;14.10;;;12.90;;
2434;SDS011;1228;51.022;6.764;2023-06-10T02:22:19;13.20;;;11.87;;
2434;SDS011;1228;51.022;6.764;2023-06-10T02:24:49;13.57;;;12.23;;
2434;SDS011;1228;51.022;6.764;2023-06-10T02:27:15;12.67;;;11.60;;
2434;SDS011;1228;51.022;6.764;2023-06-10T02:29:41;14.20;;;12.90;;
2434;SDS011;1228;51.022;6.764;2023-06-10T02:32:08;13.83;;;12.63;;
2434;SDS011;1228;51.022;6.764;2023-06-10T02:34:34;12.40;;;11.20;;
2434;SDS011;1228;51.022;6.764;2023-06-10T02:37:01;13.23;;;11.83;;
2434;SDS011;1228;51.022;6.764;2023-06-10T02:39:28;13.80;;;12.50;;
2434;SDS011;1228;51.022;6.764;2023-06-10T02:41:53;12.77;;;11.67;;
2434;SDS011;1228;51.022;6.764;2023-06-10T02:44:19;13.87;;;12.40;;
2434;SDS011;1228;51.022;6.764;2023-06-10T02:46:45;12.50;;;11.40;;
2434;SDS011;1228;51.022;6.764;2023-06-10T02:49:11;13.60;;;12.27;;
2434;SDS011;1228;51.022;6.764;2023-06-10T02:51:36;13.37;;;12.07;;
2434;SDS011;1228;51.022;6.764;2023-06-10T02:54:02;12.90;;;11.67;;
2434;SDS011;1228;51.022;6.764;2023-06-10T02:56:28;13.80;;;12.57;;
2434;SDS011;1228;51.022;6.764;2023-06-10T02:58:54;14.17;;;12.83;;
2434;SDS011;1228;51.022;6.764;2023-06-10T03:01:20;14.07;;;12.80;;
2434;SDS011;1228;51.022;6.764;2023-06-10T03:03:46;14.53;;;12.70;;
2434;SDS011;1228;51.022;6.764;2023-06-10T03:06:12;13.90;;;12.63;;
2434;SDS011;1228;51.022;6.764;2023-06-10T03:08:39;13.43;;;12.03;;
2434;SDS011;1228;51.022;6.764;2023-06-10T03:11:05;14.77;;;13.47;;
2434;SDS011;1228;51.022;6.764;2023-06-10T03:13:31;13.43;;;12.13;;
2434;SDS011;1228;51.022;6.764;2023-06-10T03:15:57;13.73;;;12.43;;
2434;SDS011;1228;51.022;6.764;2023-06-10T03:18:26;13.70;;;12.40;;
2434;SDS011;1228;51.022;6.764;2023-06-10T03:20:53;15.37;;;13.67;;
2434;SDS011;1228;51.022;6.764;2023-06-10T03:23:20;14.53;;;13.07;;
2434;SDS011;1228;51.022;6.764;2023-06-10T03:25:46;14.10;;;12.60;;
2434;SDS011;1228;51.022;6.764;2023-06-10T03:28:12;13.43;;;12.20;;
2434;SDS011;1228;51.022;6.764;2023-06-10T03:30:37;14.40;;;13.00;;
2434;SDS011;1228;51.022;6.764;2023-06-10T03:33:03;16.93;;;13.23;;
2434;SDS011;1228;51.022;6.764;2023-06-10T03:35:29;14.70;;;13.20;;
2434;SDS011;1228;51.022;6.764;2023-06-10T03:37:55;16.13;;;14.33;;
2434;SDS011;1228;51.022;6.764;2023-06-10T03:40:20;15.80;;;14.23;;
2434;SDS011;1228;51.022;6.764;2023-06-10T03:42:46;15.00;;;13.63;;
2434;SDS011;1228;51.022;6.764;2023-06-10T03:45:12;14.93;;;13.47;;
2434;SDS011;1228;51.022;6.764;2023-06-10T03:47:38;13.43;;;12.13;;
2434;SDS011;1228;51.022;6.764;2023-06-10T03:50:05;13.80;;;12.37;;
2434;SDS011;1228;51.022;6.764;2023-06-10T03:52:33;14.13;;;12.73;;
2434;SDS011;1228;51.022;6.764;2023-06-10T03:54:59;14.27;;;12.97;;
2434;SDS011;1228;51.022;6.764;2023-06-10T03:57:25;13.73;;;12.53;;
2434;SDS011;1228;51.022;6.764;2023-06-10T03:59:51;14.23;;;13.13;;
2434;SDS011;1228;51.022;6.764;2023-06-10T04:02:16;14.17;;;12.87;;
2434;SDS011;1228;51.022;6.764;2023-06-10T04:04:42;13.77;;;12.67;;
2434;SDS011;1228;51.022;6.764;2023-06-10T04:07:08;13.67;;;12.47;;
2434;SDS011;1228;51.022;6.764;2023-06-10T04:09:34;13.43;;;12.23;;
2434;SDS011;1228;51.022;6.764;2023-06-10T04:12:00;13.03;;;11.93;;
2434;SDS011;1228;51.022;6.764;2023-06-10T04:14:26;13.10;;;12.03;;
2434;SDS011;1228;51.022;6.764;2023-06-10T04:16:52;13.63;;;12.57;;
2434;SDS011;1228;51.022;6.764;2023-06-10T04:19:18;15.33;;;14.17;;
2434;SDS011;1228;51.022;6.764;2023-06-10T04:21:43;14.60;;;13.30;;
2434;SDS011;1228;51.022;6.764;2023-06-10T04:24:09;13.07;;;11.77;;
2434;SDS011;1228;51.022;6.764;2023-06-10T04:26:35;13.60;;;12.40;;
2434;SDS011;1228;51.022;6.764;2023-06-10T04:29:01;13.87;;;12.57;;
2434;SDS011;1228;51.022;6.764;2023-06-10T04:31:27;14.97;;;13.53;;
2434;SDS011;1228;51.022;6.764;2023-06-10T04:33:53;14.33;;;13.23;;
2434;SDS011;1228;51.022;6.764;2023-06-10T04:36:19;13.87;;;12.67;;
2434;SDS011;1228;51.022;6.764;2023-06-10T04:38:45;16.23;;;14.77;;
2434;SDS011;1228;51.022;6.764;2023-06-10T04:41:11;16.07;;;14.80;;
2434;SDS011;1228;51.022;6.764;2023-06-10T04:43:37;16.93;;;15.73;;
2434;SDS011;1228;51.022;6.764;2023-06-10T04:46:03;17.70;;;11.70;;
2434;SDS011;1228;51.022;6.764;2023-06-10T04:48:29;12.75;;;11.52;;
2434;SDS011;1228;51.022;6.764;2023-06-10T04:50:54;12.07;;;10.98;;
2434;SDS011;1228;51.022;6.764;2023-06-10T04:53:21;12.25;;;11.07;;
2434;SDS011;1228;51.022;6.764;2023-06-10T04:55:47;11.95;;;10.90;;
2434;SDS011;1228;51.022;6.764;2023-06-10T04:58:13;15.77;;;14.35;;
2434;SDS011;1228;51.022;6.764;2023-06-10T05:00:39;14.77;;;13.63;;
2434;SDS011;1228;51.022;6.764;2023-06-10T05:03:05;18.55;;;17.15;;
2434;SDS011;1228;51.022;6.764;2023-06-10T05:05:31;21.25;;;19.67;;
2434;SDS011;1228;51.022;6.764;2023-06-10T05:07:56;13.18;;;12.07;;
2434;SDS011;1228;51.022;6.764;2023-06-10T05:10:22;12.63;;;10.40;;
2434;SDS011;1228;51.022;6.764;2023-06-10T05:12:47;13.02;;;11.82;;
2434;SDS011;1228;51.022;6.764;2023-06-10T05:15:13;10.38;;;9.45;;
2434;SDS011;1228;51.022;6.764;2023-06-10T05:17:39;10.32;;;9.27;;
2434;SDS011;1228;51.022;6.764;2023-06-10T05:20:04;10.25;;;9.35;;
2434;SDS011;1228;51.022;6.764;2023-06-10T05:22:31;9.95;;;8.95;;
2434;SDS011;1228;51.022;6.764;2023-06-10T05:24:56;10.80;;;9.75;;
2434;SDS011;1228;51.022;6.764;2023-06-10T05:27:22;11.57;;;10.48;;
2434;SDS011;1228;51.022;6.764;2023-06-10T05:29:48;13.75;;;11.00;;
2434;SDS011;1228;51.022;6.764;2023-06-10T05:32:13;10.75;;;9.75;;
2434;SDS011;1228;51.022;6.764;2023-06-10T05:34:39;12.23;;;10.77;;
2434;SDS011;1228;51.022;6.764;2023-06-10T05:37:04;11.35;;;10.35;;
2434;SDS011;1228;51.022;6.764;2023-06-10T05:39:30;11.50;;;10.52;;
2434;SDS011;1228;51.022;6.764;2023-06-10T05:41:56;11.13;;;9.57;;
2434;SDS011;1228;51.022;6.764;2023-06-10T05:44:23;11.05;;;8.63;;
2434;SDS011;1228;51.022;6.764;2023-06-10T05:46:49;9.90;;;8.57;;
2434;SDS011;1228;51.022;6.764;2023-06-10T05:49:15;10.60;;;9.00;;
2434;SDS011;1228;51.022;6.764;2023-06-10T05:51:41;9.98;;;9.07;;
2434;SDS011;1228;51.022;6.764;2023-06-10T05:54:06;10.95;;;9.85;;
2434;SDS011;1228;51.022;6.764;2023-06-10T05:56:32;9.82;;;8.98;;
2434;SDS011;1228;51.022;6.764;2023-06-10T05:58:58;9.43;;;8.07;;
2434;SDS011;1228;51.022;6.764;2023-06-10T06:01:24;10.38;;;9.48;;
2434;SDS011;1228;51.022;6.764;2023-06-10T06:03:49;9.85;;;8.88;;
2434;SDS011;1228;51.022;6.764;2023-06-10T06:06:15;9.63;;;8.52;;
2434;SDS011;1228;51.022;6.764;2023-06-10T06:08:41;9.90;;;9.20;;
2434;SDS011;1228;51.022;6.764;2023-06-10T06:11:07;9.25;;;8.55;;
2434;SDS011;1228;51.022;6.764;2023-06-10T06:13:32;9.32;;;8.43;;
2434;SDS011;1228;51.022;6.764;2023-06-10T06:15:58;8.20;;;7.40;;
2434;SDS011;1228;51.022;6.764;2023-06-10T06:18:24;9.23;;;8.32;;
2434;SDS011;1228;51.022;6.764;2023-06-10T06:20:49;7.63;;;7.03;;
2434;SDS011;1228;51.022;6.764;2023-06-10T06:23:15;9.43;;;7.95;;
2434;SDS011;1228;51.022;6.764;2023-06-10T06:25:41;8.23;;;7.50;;
2434;SDS011;1228;51.022;6.764;2023-06-10T06:28:06;9.13;;;8.23;;
2434;SDS011;1228;51.022;6.764;2023-06-10T06:30:33;9.48;;;8.57;;
2434;SDS011;1228;51.022;6.764;2023-06-10T06:33:00;10.18;;;6.93;;
2434;SDS011;1228;51.022;6.764;2023-06-10T06:35:25;8.65;;;7.90;;
2434;SDS011;1228;51.022;6.764;2023-06-10T06:37:51;10.40;;;9.40;;
2434;SDS011;1228;51.022;6.764;2023-06-10T06:40:16;11.98;;;10.98;;
2434;SDS011;1228;51.022;6.764;2023-06-10T06:42:42;12.43;;;11.43;;
2434;SDS011;1228;51.022;6.764;2023-06-10T06:45:08;11.80;;;10.90;;
2434;SDS011;1228;51.022;6.764;2023-06-10T06:47:34;12.75;;;11.75;;
2434;SDS011;1228;51.022;6.764;2023-06-10T06:50:00;9.55;;;8.77;;
2434;SDS011;1228;51.022;6.764;2023-06-10T06:52:25;8.70;;;7.95;;
2434;SDS011;1228;51.022;6.764;2023-06-10T06:54:51;9.07;;;8.23;;
2434;SDS011;1228;51.022;6.764;2023-06-10T06:57:16;8.77;;;7.97;;
2434;SDS011;1228;51.022;6.764;2023-06-10T06:59:42;8.45;;;7.68;;
2434;SDS011;1228;51.022;6.764;2023-06-10T07:02:08;7.95;;;7.35;;
2434;SDS011;1228;51.022;6.764;2023-06-10T07:04:33;8.45;;;7.40;;
2434;SDS011;1228;51.022;6.764;2023-06-10T07:06:59;7.65;;;6.95;;
2434;SDS011;1228;51.022;6.764;2023-06-10T07:09:25;7.78;;;7.10;;
2434;SDS011;1228;51.022;6.764;2023-06-10T07:11:51;8.05;;;7.25;;
2434;SDS011;1228;51.022;6.764;2023-06-10T07:14:16;7.22;;;6.55;;
2434;SDS011;1228;51.022;6.764;2023-06-10T07:16:42;8.65;;;7.75;;
2434;SDS011;1228;51.022;6.764;2023-06-10T07:19:10;7.10;;;6.50;;
2434;SDS011;1228;51.022;6.764;2023-06-10T07:21:35;7.15;;;6.55;;
2434;SDS011;1228;51.022;6.764;2023-06-10T07:24:02;7.93;;;7.32;;
2434;SDS011;1228;51.022;6.764;2023-06-10T07:26:28;7.93;;;7.25;;
2434;SDS011;1228;51.022;6.764;2023-06-10T07:28:54;7.25;;;6.65;;
2434;SDS011;1228;51.022;6.764;2023-06-10T07:31:20;8.25;;;7.63;;
2434;SDS011;1228;51.022;6.764;2023-06-10T07:33:46;7.20;;;6.60;;
2434;SDS011;1228;51.022;6.764;2023-06-10T07:36:12;7.65;;;7.03;;
2434;SDS011;1228;51.022;6.764;2023-06-10T07:38:37;9.15;;;6.35;;
2434;SDS011;1228;51.022;6.764;2023-06-10T07:41:03;8.80;;;6.63;;
2434;SDS011;1228;51.022;6.764;2023-06-10T07:43:29;6.80;;;6.20;;
2434;SDS011;1228;51.022;6.764;2023-06-10T07:45:54;9.98;;;7.35;;
2434;SDS011;1228;51.022;6.764;2023-06-10T07:48:20;7.53;;;6.82;;
2434;SDS011;1228;51.022;6.764;2023-06-10T07:50:45;6.55;;;5.95;;
2434;SDS011;1228;51.022;6.764;2023-06-10T07:53:11;6.45;;;5.95;;
2434;SDS011;1228;51.022;6.764;2023-06-10T07:55:37;7.63;;;6.35;;
2434;SDS011;1228;51.022;6.764;2023-06-10T07:58:02;6.38;;;5.78;;
2434;SDS011;1228;51.022;6.764;2023-06-10T08:00:28;7.22;;;6.30;;
2434;SDS011;1228;51.022;6.764;2023-06-10T08:02:53;6.82;;;6.13;;
2434;SDS011;1228;51.022;6.764;2023-06-10T08:05:19;7.00;;;6.30;;
2434;SDS011;1228;51.022;6.764;2023-06-10T08:07:45;7.65;;;5.78;;
2434;SDS011;1228;51.022;6.764;2023-06-10T08:10:11;8.57;;;5.95;;
2434;SDS011;1228;51.022;6.764;2023-06-10T08:12:36;6.53;;;5.93;;
2434;SDS011;1228;51.022;6.764;2023-06-10T08:15:02;6.40;;;5.80;;
2434;SDS011;1228;51.022;6.764;2023-06-10T08:17:29;7.28;;;6.45;;
2434;SDS011;1228;51.022;6.764;2023-06-10T08:19:55;6.40;;;5.90;;
2434;SDS011;1228;51.022;6.764;2023-06-10T08:22:21;6.70;;;5.60;;
2434;SDS011;1228;51.022;6.764;2023-06-10T08:24:46;6.47;;;5.75;;
2434;SDS011;1228;51.022;6.764;2023-06-10T08:27:12;6.50;;;5.90;;
2434;SDS011;1228;51.022;6.764;2023-06-10T08:29:38;6.47;;;5.85;;
2434;SDS011;1228;51.022;6.764;2023-06-10T08:32:04;6.47;;;5.88;;
2434;SDS011;1228;51.022;6.764;2023-06-10T08:34:33;6.40;;;5.38;;
2434;SDS011;1228;51.022;6.764;2023-06-10T08:36:59;6.57;;;5.90;;
2434;SDS011;1228;51.022;6.764;2023-06-10T08:39:25;9.07;;;6.03;;
2434;SDS011;1228;51.022;6.764;2023-06-10T08:42:17;6.80;;;6.20;;
2434;SDS011;1228;51.022;6.764;2023-06-10T08:44:43;7.55;;;6.03;;
2434;SDS011;1228;51.022;6.764;2023-06-10T08:47:15;6.47;;;5.88;;
2434;SDS011;1228;51.022;6.764;2023-06-10T08:49:44;6.68;;;6.07;;
2434;SDS011;1228;51.022;6.764;2023-06-10T08:52:17;7.35;;;6.07;;
2434;SDS011;1228;51.022;6.764;2023-06-10T08:54:48;7.13;;;6.53;;
2434;SDS011;1228;51.022;6.764;2023-06-10T08:57:18;6.78;;;6.28;;
2434;SDS011;1228;51.022;6.764;2023-06-10T08:59:46;7.32;;;6.40;;
2434;SDS011;1228;51.022;6.764;2023-06-10T09:02:13;8.35;;;6.78;;
2434;SDS011;1228;51.022;6.764;2023-06-10T09:04:41;6.38;;;5.75;;
2434;SDS011;1228;51.022;6.764;2023-06-10T09:07:08;7.25;;;5.97;;
2434;SDS011;1228;51.022;6.764;2023-06-10T09:09:34;7.97;;;5.85;;
2434;SDS011;1228;51.022;6.764;2023-06-10T09:12:00;7.40;;;5.78;;
2434;SDS011;1228;51.022;6.764;2023-06-10T09:14:26;7.50;;;6.18;;
2434;SDS011;1228;51.022;6.764;2023-06-10T09:16:52;7.63;;;6.00;;
2434;SDS011;1228;51.022;6.764;2023-06-10T09:19:21;6.80;;;5.97;;
2434;SDS011;1228;51.022;6.764;2023-06-10T09:21:49;6.85;;;6.15;;
2434;SDS011;1228;51.022;6.764;2023-06-10T09:24:15;7.13;;;6.00;;
2434;SDS011;1228;51.022;6.764;2023-06-10T09:26:41;7.90;;;6.43;;
2434;SDS011;1228;51.022;6.764;2023-06-10T09:29:07;7.25;;;6.55;;
2434;SDS011;1228;51.022;6.764;2023-06-10T09:31:34;6.93;;;6.32;;
2434;SDS011;1228;51.022;6.764;2023-06-10T09:34:19;7.05;;;6.35;;
2434;SDS011;1228;51.022;6.764;2023-06-10T09:36:49;6.90;;;6.30;;
2434;SDS011;1228;51.022;6.764;2023-06-10T09:39:16;6.70;;;5.47;;
2434;SDS011;1228;51.022;6.764;2023-06-10T09:41:43;7.15;;;6.45;;
2434;SDS011;1228;51.022;6.764;2023-06-10T09:44:13;6.63;;;5.72;;
2434;SDS011;1228;51.022;6.764;2023-06-10T09:46:40;9.95;;;6.35;;
2434;SDS011;1228;51.022;6.764;2023-06-10T09:49:06;6.85;;;5.97;;
2434;SDS011;1228;51.022;6.764;2023-06-10T09:51:32;6.38;;;5.78;;
2434;SDS011;1228;51.022;6.764;2023-06-10T09:53:57;7.05;;;5.60;;
2434;SDS011;1228;51.022;6.764;2023-06-10T09:56:36;6.53;;;5.40;;
2434;SDS011;1228;51.022;6.764;2023-06-10T09:59:02;6.75;;;6.15;;
2434;SDS011;1228;51.022;6.764;2023-06-10T10:01:30;6.57;;;5.78;;
2434;SDS011;1228;51.022;6.764;2023-06-10T10:03:56;6.40;;;5.47;;
2434;SDS011;1228;51.022;6.764;2023-06-10T10:06:21;6.88;;;6.28;;
2434;SDS011;1228;51.022;6.764;2023-06-10T10:08:48;6.80;;;6.20;;
2434;SDS011;1228;51.022;6.764;2023-06-10T10:11:18;8.05;;;5.97;;
2434;SDS011;1228;51.022;6.764;2023-06-10T10:13:48;6.07;;;5.47;;
2434;SDS011;1228;51.022;6.764;2023-06-10T10:16:16;9.45;;;6.35;;
2434;SDS011;1228;51.022;6.764;2023-06-10T10:18:51;6.22;;;5.63;;
2434;SDS011;1228;51.022;6.764;2023-06-10T10:21:21;8.10;;;6.32;;
2434;SDS011;1228;51.022;6.764;2023-06-10T10:24:07;8.43;;;7.30;;
2434;SDS011;1228;51.022;6.764;2023-06-10T10:26:41;7.95;;;6.63;;
2434;SDS011;1228;51.022;6.764;2023-06-10T10:29:10;6.40;;;5.80;;
2434;SDS011;1228;51.022;6.764;2023-06-10T10:31:50;10.00;;;6.72;;
2434;SDS011;1228;51.022;6.764;2023-06-10T10:34:19;6.85;;;6.10;;
2434;SDS011;1228;51.022;6.764;2023-06-10T10:36:50;7.10;;;6.53;;
2434;SDS011;1228;51.022;6.764;2023-06-10T10:39:16;7.80;;;7.10;;
2434;SDS011;1228;51.022;6.764;2023-06-10T10:41:43;6.78;;;6.15;;
2434;SDS011;1228;51.022;6.764;2023-06-10T10:44:10;6.68;;;6.07;;
2434;SDS011;1228;51.022;6.764;2023-06-10T10:46:49;6.15;;;5.55;;
2434;SDS011;1228;51.022;6.764;2023-06-10T10:49:15;7.68;;;6.63;;
2434;SDS011;1228;51.022;6.764;2023-06-10T10:51:58;7.63;;;5.72;;
2434;SDS011;1228;51.022;6.764;2023-06-10T10:54:36;6.72;;;6.13;;
2434;SDS011;1228;51.022;6.764;2023-06-10T10:57:14;6.03;;;5.43;;
2434;SDS011;1228;51.022;6.764;2023-06-10T10:59:58;6.63;;;6.00;;
2434;SDS011;1228;51.022;6.764;2023-06-10T11:02:45;6.40;;;5.90;;
2434;SDS011;1228;51.022;6.764;2023-06-10T11:05:13;7.82;;;6.97;;
2434;SDS011;1228;51.022;6.764;2023-06-10T11:07:40;6.95;;;6.22;;
2434;SDS011;1228;51.022;6.764;2023-06-10T11:10:16;7.28;;;6.40;;
2434;SDS011;1228;51.022;6.764;2023-06-10T11:12:47;6.93;;;6.10;;
2434;SDS011;1228;51.022;6.764;2023-06-10T11:15:22;8.75;;;6.28;;
2434;SDS011;1228;51.022;6.764;2023-06-10T11:28:37;8.27;;;7.47;;
2434;SDS011;1228;51.022;6.764;2023-06-10T11:31:03;7.72;;;7.10;;
2434;SDS011;1228;51.022;6.764;2023-06-10T11:33:29;7.50;;;6.80;;
2434;SDS011;1228;51.022;6.764;2023-06-10T11:35:56;7.75;;;6.80;;
2434;SDS011;1228;51.022;6.764;2023-06-10T11:38:21;7.45;;;6.75;;
2434;SDS011;1228;51.022;6.764;2023-06-10T11:40:48;7.30;;;6.70;;
2434;SDS011;1228;51.022;6.764;2023-06-10T11:43:15;8.55;;;6.55;;
2434;SDS011;1228;51.022;6.764;2023-06-10T11:45:43;7.82;;;7.05;;
2434;SDS011;1228;51.022;6.764;2023-06-10T11:48:09;8.38;;;7.68;;
2434;SDS011;1228;51.022;6.764;2023-06-10T11:50:35;8.68;;;7.97;;
2434;SDS011;1228;51.022;6.764;2023-06-10T11:53:02;8.45;;;7.78;;
2434;SDS011;1228;51.022;6.764;2023-06-10T11:55:41;7.10;;;6.50;;
2434;SDS011;1228;51.022;6.764;2023-06-10T11:58:14;7.43;;;6.78;;
2434;SDS011;1228;51.022;6.764;2023-06-10T12:00:44;8.50;;;7.50;;
2434;SDS011;1228;51.022;6.764;2023-06-10T12:03:14;7.75;;;7.18;;
2434;SDS011;1228;51.022;6.764;2023-06-10T12:05:40;8.32;;;6.75;;
2434;SDS011;1228;51.022;6.764;2023-06-10T12:08:19;8.10;;;7.13;;
2434;SDS011;1228;51.022;6.764;2023-06-10T12:10:45;7.28;;;6.68;;
2434;SDS011;1228;51.022;6.764;2023-06-10T12:13:10;7.97;;;7.32;;
2434;SDS011;1228;51.022;6.764;2023-06-10T12:15:36;8.20;;;7.50;;
2434;SDS011;1228;51.022;6.764;2023-06-10T12:18:02;9.15;;;8.35;;
2434;SDS011;1228;51.022;6.764;2023-06-10T12:20:29;8.50;;;7.70;;
2434;SDS011;1228;51.022;6.764;2023-06-10T12:22:57;6.82;;;6.30;;
2434;SDS011;1228;51.022;6.764;2023-06-10T12:25:26;7.53;;;6.82;;
2434;SDS011;1228;51.022;6.764;2023-06-10T12:27:54;7.97;;;7.28;;
2434;SDS011;1228;51.022;6.764;2023-06-10T12:30:22;6.97;;;6.38;;
2434;SDS011;1228;51.022;6.764;2023-06-10T12:32:49;7.45;;;6.63;;
2434;SDS011;1228;51.022;6.764;2023-06-10T12:35:18;6.93;;;6.20;;
2434;SDS011;1228;51.022;6.764;2023-06-10T12:40:26;7.05;;;6.43;;
2434;SDS011;1228;51.022;6.764;2023-06-10T12:42:54;6.30;;;5.80;;
2434;SDS011;1228;51.022;6.764;2023-06-10T12:45:33;7.47;;;5.65;;
2434;SDS011;1228;51.022;6.764;2023-06-10T12:50:52;7.18;;;6.57;;
2434;SDS011;1228;51.022;6.764;2023-06-10T12:53:18;7.63;;;5.97;;
2434;SDS011;1228;51.022;6.764;2023-06-10T12:55:45;7.20;;;6.60;;
2434;SDS011;1228;51.022;6.764;2023-06-10T12:58:11;6.53;;;5.93;;
2434;SDS011;1228;51.022;6.764;2023-06-10T13:00:37;6.28;;;5.68;;
2434;SDS011;1228;51.022;6.764;2023-06-10T13:03:03;5.75;;;5.25;;
2434;SDS011;1228;51.022;6.764;2023-06-10T13:05:30;5.90;;;5.40;;
2434;SDS011;1228;51.022;6.764;2023-06-10T13:07:56;5.63;;;5.22;;
2434;SDS011;1228;51.022;6.764;2023-06-10T13:10:22;5.70;;;5.20;;
2434;SDS011;1228;51.022;6.764;2023-06-10T13:12:49;6.70;;;6.10;;
2434;SDS011;1228;51.022;6.764;2023-06-10T13:15:15;5.18;;;4.78;;
2434;SDS011;1228;51.022;6.764;2023-06-10T13:17:45;5.90;;;5.43;;
2434;SDS011;1228;51.022;6.764;2023-06-10T13:20:14;5.72;;;5.05;;
2434;SDS011;1228;51.022;6.764;2023-06-10T13:22:41;5.43;;;4.93;;
2434;SDS011;1228;51.022;6.764;2023-06-10T13:25:07;8.82;;;5.85;;
2434;SDS011;1228;51.022;6.764;2023-06-10T13:27:33;6.50;;;5.90;;
2434;SDS011;1228;51.022;6.764;2023-06-10T13:30:07;6.70;;;6.13;;
2434;SDS011;1228;51.022;6.764;2023-06-10T13:32:34;7.55;;;6.85;;
2434;SDS011;1228;51.022;6.764;2023-06-10T13:35:00;6.78;;;6.18;;
2434;SDS011;1228;51.022;6.764;2023-06-10T13:37:26;8.20;;;7.43;;
2434;SDS011;1228;51.022;6.764;2023-06-10T13:39:52;8.07;;;7.28;;
2434;SDS011;1228;51.022;6.764;2023-06-10T13:42:18;7.32;;;6.72;;
2434;SDS011;1228;51.022;6.764;2023-06-10T13:44:44;6.50;;;5.85;;
2434;SDS011;1228;51.022;6.764;2023-06-10T13:47:09;6.00;;;5.50;;
2434;SDS011;1228;51.022;6.764;2023-06-10T13:49:35;7.43;;;6.70;;
2434;SDS011;1228;51.022;6.764;2023-06-10T13:52:01;9.48;;;8.35;;
2434;SDS011;1228;51.022;6.764;2023-06-10T13:54:27;6.97;;;6.38;;
2434;SDS011;1228;51.022;6.764;2023-06-10T13:56:53;9.45;;;8.75;;
2434;SDS011;1228;51.022;6.764;2023-06-10T13:59:19;7.57;;;6.88;;
2434;SDS011;1228;51.022;6.764;2023-06-10T14:01:45;7.07;;;6.43;;
2434;SDS011;1228;51.022;6.764;2023-06-10T14:04:11;6.75;;;6.15;;
2434;SDS011;1228;51.022;6.764;2023-06-10T14:06:36;8.55;;;6.22;;
2434;SDS011;1228;51.022;6.764;2023-06-10T14:09:02;6.93;;;6.32;;
2434;SDS011;1228;51.022;6.764;2023-06-10T14:11:28;6.45;;;5.85;;
2434;SDS011;1228;51.022;6.764;2023-06-10T14:13:54;6.93;;;6.38;;
2434;SDS011;1228;51.022;6.764;2023-06-10T14:16:22;5.65;;;5.10;;
2434;SDS011;1228;51.022;6.764;2023-06-10T14:18:48;5.43;;;5.03;;
2434;SDS011;1228;51.022;6.764;2023-06-10T14:21:15;8.32;;;5.40;;
2434;SDS011;1228;51.022;6.764;2023-06-10T14:23:41;5.70;;;5.10;;
2434;SDS011;1228;51.022;6.764;2023-06-10T14:26:08;5.05;;;4.65;;
2434;SDS011;1228;51.022;6.764;2023-06-10T14:28:34;4.82;;;4.10;;
2434;SDS011;1228;51.022;6.764;2023-06-10T14:30:59;6.82;;;6.32;;
2434;SDS011;1228;51.022;6.764;2023-06-10T14:33:25;5.35;;;4.68;;
2434;SDS011;1228;51.022;6.764;2023-06-10T14:35:50;5.63;;;5.22;;
2434;SDS011;1228;51.022;6.764;2023-06-10T14:38:16;5.35;;;4.57;;
2434;SDS011;1228;51.022;6.764;2023-06-10T14:40:41;5.88;;;5.38;;
2434;SDS011;1228;51.022;6.764;2023-06-10T14:43:07;9.80;;;9.10;;
2434;SDS011;1228;51.022;6.764;2023-06-10T14:45:35;6.03;;;5.53;;
2434;SDS011;1228;51.022;6.764;2023-06-10T14:48:02;6.60;;;5.55;;
2434;SDS011;1228;51.022;6.764;2023-06-10T14:50:28;5.90;;;5.38;;
2434;SDS011;1228;51.022;6.764;2023-06-10T14:52:54;7.60;;;7.00;;
2434;SDS011;1228;51.022;6.764;2023-06-10T14:55:20;8.15;;;7.22;;
2434;SDS011;1228;51.022;6.764;2023-06-10T14:57:47;7.32;;;6.65;;
2434;SDS011;1228;51.022;6.764;2023-06-10T15:00:13;7.03;;;5.13;;
2434;SDS011;1228;51.022;6.764;2023-06-10T15:02:41;6.75;;;6.20;;
2434;SDS011;1228;51.022;6.764;2023-06-10T15:05:07;9.10;;;8.30;;
2434;SDS011;1228;51.022;6.764;2023-06-10T15:07:33;7.70;;;7.10;;
2434;SDS011;1228;51.022;6.764;2023-06-10T15:09:59;7.78;;;7.07;;
2434;SDS011;1228;51.022;6.764;2023-06-10T15:12:24;11.27;;;10.57;;
2434;SDS011;1228;51.022;6.764;2023-06-10T15:14:50;6.82;;;6.32;;
2434;SDS011;1228;51.022;6.764;2023-06-10T15:17:16;7.13;;;6.45;;
2434;SDS011;1228;51.022;6.764;2023-06-10T15:19:41;7.97;;;7.30;;
2434;SDS011;1228;51.022;6.764;2023-06-10T15:22:07;7.35;;;6.57;;
2434;SDS011;1228;51.022;6.764;2023-06-10T15:24:32;7.68;;;6.95;;
2434;SDS011;1228;51.022;6.764;2023-06-10T15:26:58;7.25;;;6.53;;
2434;SDS011;1228;51.022;6.764;2023-06-10T15:29:23;6.50;;;5.88;;
2434;SDS011;1228;51.022;6.764;2023-06-10T15:31:49;6.40;;;5.80;;